Peotone Weather
Peotone-Weather Station Historical Data
Daily Summary for March 13, 2019 Units:  English    Metric   Both
Daily Weekly Monthly Yearly Custom
  High: Low: Average:
Temperature: 57.9 °F 37.7 °F 48.5 °F
Dew Point: 49.5 °F 31.1 °F 41.6 °F
Humidity: 87% 69.2% 77%
Wind Speed: 9.4mph 2.2mph 6.6mph
Wind Gust: 18.4mph - -
Wind- - SE
Pressure: 30.10 in 29.69 in -
Precipitation: 0.59 in    
Historical Graphs
 
 
Tabular Data for March 13, 2019
Time Temperature Dew Point Pressure Wind Wind Speed Wind Gust Humidity Rainfall Rate (Hourly) solar
00:04 39.3 °F 31.1 °F 30.10 in SE 6 mph 12.6 mph 72% 0.00 in 0 W/m2
00:09 39.2 °F 31.3 °F 30.09 in SE 5.5 mph 12.6 mph 72.9% 0.00 in 0 W/m2
00:14 39.1 °F 31.2 °F 30.09 in SE 6.8 mph 11.5 mph 73% 0.00 in 0 W/m2
00:19 39 °F 31.1 °F 30.09 in SE 7.3 mph 12.6 mph 73% 0.00 in 0 W/m2
00:24 39 °F 31.1 °F 30.08 in SE 6.5 mph 12.6 mph 73% 0.00 in 0 W/m2
00:29 39.1 °F 31.2 °F 30.08 in SE 7 mph 12.6 mph 73% 0.00 in 0 W/m2
00:34 39.2 °F 31.3 °F 30.08 in SE 6.5 mph 14.9 mph 73% 0.00 in 0 W/m2
00:39 39.4 °F 31.3 °F 30.08 in SE 7 mph 14.9 mph 72.7% 0.00 in 0 W/m2
00:44 39.4 °F 31.2 °F 30.08 in SE 7.6 mph 14.9 mph 72% 0.00 in 0 W/m2
00:49 39.5 °F 31.2 °F 30.07 in SE 7.6 mph 14.9 mph 72% 0.00 in 0 W/m2
00:54 39.5 °F 31.4 °F 30.07 in SE 8 mph 13.8 mph 72.4% 0.00 in 0 W/m2
00:59 39.6 °F 31.5 °F 30.07 in SE 8.3 mph 13.8 mph 72.6% 0.00 in 0 W/m2
01:04 39.6 °F 31.7 °F 30.06 in SE 5 mph 13.8 mph 73% 0.00 in 0 W/m2
01:09 39.6 °F 31.6 °F 30.06 in SE 7.4 mph 12.6 mph 73% 0.00 in 0 W/m2
01:14 39.5 °F 31.6 °F 30.06 in SE 8 mph 13.8 mph 73% 0.00 in 0 W/m2
01:19 39.5 °F 31.6 °F 30.05 in SSE 8.9 mph 13.8 mph 73% 0.00 in 0 W/m2
01:24 39.6 °F 31.7 °F 30.05 in SE 8.4 mph 18.4 mph 73% 0.00 in 0 W/m2
01:29 39.6 °F 31.8 °F 30.05 in SE 7.1 mph 18.4 mph 73.5% 0.00 in 0 W/m2
01:34 39.4 °F 31.9 °F 30.04 in SE 5.9 mph 12.6 mph 74.3% 0.00 in 0 W/m2
01:39 39.1 °F 31.9 °F 30.04 in SE 6.4 mph 12.6 mph 75% 0.00 in 0 W/m2
01:44 38.8 °F 31.6 °F 30.04 in SE 6.4 mph 12.6 mph 75% 0.01 in 0 W/m2
01:49 38.7 °F 31.6 °F 30.04 in SE 5.8 mph 12.6 mph 75.5% 0.01 in 0 W/m2
01:54 38.6 °F 31.7 °F 30.04 in SE 6.3 mph 13.8 mph 76% 0.01 in 0 W/m2
01:59 38.7 °F 31.7 °F 30.04 in SE 6.9 mph 13.8 mph 75.7% 0.01 in 0 W/m2
02:04 38.6 °F 31.7 °F 30.03 in SE 7.3 mph 13.8 mph 76% 0.01 in 0 W/m2
02:09 38.6 °F 31.7 °F 30.03 in SE 5.5 mph 12.6 mph 76% 0.01 in 0 W/m2
02:14 38.7 °F 31.7 °F 30.04 in SE 6.9 mph 11.5 mph 75.8% 0.01 in 0 W/m2
02:19 38.6 °F 31.8 °F 30.04 in SE 6.6 mph 11.5 mph 76.3% 0.01 in 0 W/m2
02:24 38.5 °F 32 °F 30.04 in SE 6.2 mph 10.3 mph 77.1% 0.01 in 0 W/m2
02:29 38.5 °F 32 °F 30.04 in SE 5.9 mph 10.3 mph 77.2% 0.02 in 0 W/m2
02:34 38.5 °F 32 °F 30.04 in SE 6.4 mph 11.5 mph 77.3% 0.02 in 0 W/m2
02:39 38.5 °F 32 °F 30.04 in SSE 6.4 mph 13.8 mph 77% 0.02 in 0 W/m2
02:44 38.4 °F 32.2 °F 30.04 in SE 7.1 mph 13.8 mph 78% 0.02 in 0 W/m2
02:49 38.3 °F 32.2 °F 30.05 in SE 5.9 mph 12.6 mph 78.5% 0.03 in 0 W/m2
02:54 38.2 °F 32.3 °F 30.05 in SSE 7.3 mph 12.6 mph 79% 0.02 in 0 W/m2
02:59 38.2 °F 32.4 °F 30.05 in SSE 7.2 mph 12.6 mph 79.5% 0.05 in 0 W/m2
03:04 38.1 °F 32.5 °F 30.05 in SSE 7.1 mph 12.6 mph 80.1% 0.06 in 0 W/m2
03:09 37.9 °F 32.6 °F 30.05 in SSE 6.9 mph 12.6 mph 81% 0.07 in 0 W/m2
03:12 37.7 °F 32.5 °F 30.04 in SSE 7.1 mph 12.6 mph 81.4% 0.07 in 0 W/m2
08:05 38.5 °F 34.7 °F 29.97 in SE 4.6 mph 9.2 mph 86% 0.00 in 8 W/m2
08:10 38.6 °F 34.8 °F 29.97 in SE 5.8 mph 11.5 mph 86% 0.00 in 11 W/m2
08:15 38.7 °F 34.9 °F 29.97 in SE 6.9 mph 12.6 mph 86% 0.00 in 14 W/m2
08:20 38.8 °F 35 °F 29.96 in SE 5.8 mph 11.5 mph 86% 0.00 in 19 W/m2
08:25 38.9 °F 35.1 °F 29.96 in SE 6.9 mph 12.6 mph 86% 0.00 in 24 W/m2
08:30 39.1 °F 35.3 °F 29.96 in SE 5.8 mph 11.5 mph 86% 0.00 in 42 W/m2
08:35 39.4 °F 35.6 °F 29.96 in SE 5.8 mph 11.5 mph 86% 0.00 in 52 W/m2
08:40 39.6 °F 35.8 °F 29.95 in SE 6.9 mph 12.6 mph 86% 0.00 in 57 W/m2
08:45 39.8 °F 35.7 °F 29.96 in SE 6.9 mph 11.5 mph 85% 0.00 in 51 W/m2
08:50 39.9 °F 36.1 °F 29.96 in SE 6.9 mph 12.6 mph 86% 0.00 in 53 W/m2
08:55 40.1 °F 36 °F 29.95 in SSE 8.1 mph 13.8 mph 85% 0.00 in 57 W/m2
09:00 40.3 °F 36.2 °F 29.96 in SSE 6.9 mph 14.9 mph 85% 0.00 in 60 W/m2
09:09 40.5 °F 36.3 °F 29.96 in SE 8.4 mph 13.8 mph 85% 0.00 in 60 W/m2
09:14 40.6 °F 36.4 °F 29.96 in SE 8.4 mph 14.9 mph 85% 0.00 in 60 W/m2
09:19 40.7 °F 36.3 °F 29.96 in SSE 7.3 mph 14.9 mph 84.3% 0.00 in 54 W/m2
09:24 40.8 °F 36.4 °F 29.96 in SE 6.7 mph 11.5 mph 84% 0.00 in 53 W/m2
09:29 40.9 °F 36.5 °F 29.97 in SE 7.2 mph 12.6 mph 84% 0.00 in 77 W/m2
09:34 41.1 °F 36.6 °F 29.97 in SSE 7.8 mph 12.6 mph 83.8% 0.00 in 77 W/m2
09:39 41.3 °F 36.5 °F 29.97 in SE 6.5 mph 14.9 mph 83% 0.00 in 70 W/m2
09:44 41.4 °F 36.6 °F 29.97 in SE 7.5 mph 14.9 mph 83% 0.00 in 77 W/m2
09:49 41.5 °F 36.7 °F 29.97 in SE 7.2 mph 13.8 mph 83% 0.00 in 77 W/m2
09:54 41.6 °F 36.8 °F 29.97 in SE 5.2 mph 11.5 mph 83% 0.00 in 74 W/m2
09:59 41.6 °F 36.8 °F 29.97 in SE 5.8 mph 9.2 mph 83% 0.00 in 74 W/m2
10:04 41.7 °F 36.9 °F 29.97 in SE 5 mph 10.3 mph 83% 0.00 in 63 W/m2
10:09 41.7 °F 36.9 °F 29.97 in SE 6 mph 10.3 mph 83% 0.00 in 63 W/m2
10:14 41.8 °F 37 °F 29.97 in SE 6 mph 10.3 mph 83% 0.00 in 70 W/m2
10:19 41.9 °F 37.1 °F 29.97 in SE 6.6 mph 11.5 mph 83% 0.00 in 90 W/m2
10:24 42.1 °F 37.3 °F 29.96 in SE 5.4 mph 11.5 mph 83% 0.00 in 169 W/m2
10:29 42.7 °F 37.9 °F 29.96 in SE 4.7 mph 10.3 mph 83% 0.00 in 213 W/m2
10:34 43.4 °F 38.6 °F 29.96 in SE 6.5 mph 11.5 mph 83% 0.00 in 207 W/m2
10:39 43.8 °F 38.7 °F 29.95 in SE 6.3 mph 13.8 mph 82.3% 0.00 in 172 W/m2
10:44 43.9 °F 38.8 °F 29.95 in SE 6.6 mph 13.8 mph 82% 0.00 in 134 W/m2
10:49 44 °F 38.8 °F 29.95 in SE 6.6 mph 11.5 mph 81.8% 0.00 in 144 W/m2
10:54 44.1 °F 38.8 °F 29.95 in SE 6.1 mph 11.5 mph 81.7% 0.00 in 118 W/m2
10:59 44 °F 38.7 °F 29.95 in SE 6.1 mph 11.5 mph 81.6% 0.00 in 105 W/m2
11:04 43.8 °F 38.7 °F 29.94 in SE 6.4 mph 11.5 mph 82% 0.00 in 67 W/m2
11:09 43.6 °F 38.6 °F 29.94 in SE 5.5 mph 10.3 mph 82.5% 0.01 in 35 W/m2
11:14 43.5 °F 38.6 °F 29.94 in SE 5.9 mph 11.5 mph 83% 0.01 in 23 W/m2
11:19 43.3 °F 38.5 °F 29.94 in SE 6.7 mph 12.6 mph 83% 0.02 in 19 W/m2
11:24 43.2 °F 38.6 °F 29.94 in ESE 3.3 mph 12.6 mph 83.6% 0.04 in 21 W/m2
11:29 43.2 °F 38.7 °F 29.94 in ESE 4.9 mph 10.3 mph 84% 0.06 in 42 W/m2
11:34 43.3 °F 38.9 °F 29.93 in ESE 6 mph 10.3 mph 84.3% 0.08 in 54 W/m2
11:39 43.3 °F 39.1 °F 29.93 in SE 6.4 mph 11.5 mph 85% 0.08 in 62 W/m2
11:44 43.4 °F 39.2 °F 29.93 in SE 5.7 mph 12.6 mph 85% 0.08 in 63 W/m2
11:49 43.4 °F 39.2 °F 29.94 in SE 6.7 mph 13.8 mph 85% 0.08 in 79 W/m2
11:54 43.4 °F 39.3 °F 29.94 in ESE 5.3 mph 13.8 mph 85.3% 0.08 in 86 W/m2
11:59 43.6 °F 39.7 °F 29.94 in SE 5.6 mph 11.5 mph 86% 0.08 in 109 W/m2
12:04 43.8 °F 39.9 °F 29.94 in SE 6.1 mph 11.5 mph 86% 0.08 in 223 W/m2
12:09 44.4 °F 40.7 °F 29.94 in SE 7 mph 12.6 mph 86.8% 0.08 in 320 W/m2
12:14 45.3 °F 41.6 °F 29.93 in SE 6.2 mph 13.8 mph 87% 0.08 in 543 W/m2
12:19 46.1 °F 42.5 °F 29.93 in SE 6.5 mph 13.8 mph 87% 0.07 in 457 W/m2
12:24 46.7 °F 42.7 °F 29.92 in SE 6.3 mph 10.3 mph 85.8% 0.07 in 417 W/m2
12:29 47 °F 42.7 °F 29.92 in ESE 8.2 mph 16.1 mph 84.7% 0.06 in 348 W/m2
12:34 47.5 °F 43 °F 29.92 in SE 7.1 mph 16.1 mph 84.2% 0.04 in 269 W/m2
12:39 47.9 °F 42.9 °F 29.92 in SE 7.2 mph 16.1 mph 82.6% 0.02 in 299 W/m2
12:44 48.3 °F 43 °F 29.92 in ESE 6.5 mph 16.1 mph 81.7% 0.00 in 294 W/m2
12:49 48.6 °F 43 °F 29.92 in ESE 6 mph 12.6 mph 80.9% 0.00 in 278 W/m2
12:54 48.8 °F 43.2 °F 29.92 in SE 6.9 mph 12.6 mph 80.8% 0.00 in 292 W/m2
12:59 49.2 °F 43.5 °F 29.92 in SE 8 mph 14.9 mph 80.5% 0.00 in 302 W/m2
13:04 49.5 °F 43.6 °F 29.92 in SE 7.3 mph 14.9 mph 80.2% 0.00 in 304 W/m2
13:09 49.6 °F 43.6 °F 29.91 in ESE 7.5 mph 12.6 mph 79.8% 0.00 in 362 W/m2
13:14 50 °F 44.2 °F 29.91 in SE 7.1 mph 13.8 mph 80.4% 0.00 in 374 W/m2
13:19 50.7 °F 44.8 °F 29.90 in SE 7.8 mph 13.8 mph 80.4% 0.00 in 383 W/m2
13:24 51.1 °F 44.7 °F 29.90 in SE 7.2 mph 14.9 mph 78.7% 0.00 in 345 W/m2
13:29 51.2 °F 44.8 °F 29.89 in ESE 6.4 mph 14.9 mph 78.5% 0.00 in 371 W/m2
13:34 51.8 °F 45.4 °F 29.89 in ESE 7.3 mph 11.5 mph 78.5% 0.00 in 422 W/m2
13:39 52.3 °F 45.5 °F 29.88 in ESE 6.5 mph 14.9 mph 77.5% 0.00 in 424 W/m2
13:44 52.8 °F 45.9 °F 29.88 in ESE 7.5 mph 14.9 mph 77.3% 0.00 in 378 W/m2
13:49 53.1 °F 45.9 °F 29.87 in ESE 7.6 mph 13.8 mph 76.6% 0.00 in 346 W/m2
13:54 53.3 °F 45.9 °F 29.87 in ESE 7.8 mph 12.6 mph 75.9% 0.00 in 327 W/m2
13:59 53.4 °F 46.1 °F 29.86 in ESE 7.5 mph 16.1 mph 76% 0.00 in 269 W/m2
14:04 53.6 °F 46.1 °F 29.85 in ESE 6.8 mph 16.1 mph 75.8% 0.00 in 253 W/m2
14:09 53.7 °F 46.2 °F 29.85 in ESE 6.5 mph 11.5 mph 75.8% 0.00 in 230 W/m2
14:14 53.8 °F 46.4 °F 29.85 in ESE 6.4 mph 11.5 mph 75.7% 0.00 in 213 W/m2
14:19 53.8 °F 46.4 °F 29.84 in ESE 5.6 mph 11.5 mph 75.8% 0.00 in 178 W/m2
14:24 53.8 °F 46.4 °F 29.84 in ESE 7 mph 11.5 mph 76% 0.00 in 172 W/m2
14:29 53.7 °F 46.3 °F 29.83 in ESE 5.2 mph 11.5 mph 76% 0.00 in 155 W/m2
14:34 53.5 °F 46.3 °F 29.83 in ESE 6.2 mph 10.3 mph 76.5% 0.00 in 199 W/m2
14:39 53.7 °F 46.5 °F 29.83 in ESE 5.8 mph 11.5 mph 76.5% 0.00 in 258 W/m2
14:44 54.1 °F 47 °F 29.83 in SE 5.6 mph 11.5 mph 77% 0.00 in 315 W/m2
14:49 54.8 °F 47.3 °F 29.83 in ESE 6.9 mph 10.3 mph 75.7% 0.00 in 475 W/m2
14:54 55.7 °F 47.8 °F 29.83 in ESE 8.4 mph 12.6 mph 74.7% 0.00 in 475 W/m2
14:59 56.1 °F 48.1 °F 29.83 in ESE 8 mph 12.6 mph 74.6% 0.00 in 367 W/m2
15:04 56.2 °F 47.9 °F 29.81 in ESE 7.5 mph 13.8 mph 73.7% 0.00 in 357 W/m2
15:09 56.3 °F 48.1 °F 29.81 in ESE 8.2 mph 13.8 mph 74% 0.00 in 353 W/m2
15:14 56.5 °F 48.3 °F 29.80 in ESE 8.1 mph 13.8 mph 74% 0.00 in 285 W/m2
15:19 56.7 °F 48.7 °F 29.81 in SE 7.3 mph 12.6 mph 74.5% 0.00 in 241 W/m2
15:24 57.1 °F 49.2 °F 29.81 in ESE 7.5 mph 12.6 mph 74.7% 0.00 in 246 W/m2
15:29 57.4 °F 49.5 °F 29.80 in ESE 6.6 mph 12.6 mph 74.8% 0.00 in 237 W/m2
15:34 57.5 °F 49.4 °F 29.79 in ESE 8.2 mph 16.1 mph 74.3% 0.00 in 202 W/m2
15:39 57.7 °F 49.2 °F 29.79 in SE 6.9 mph 16.1 mph 73.3% 0.00 in 169 W/m2
15:44 57.9 °F 49.3 °F 29.79 in ESE 8.2 mph 13.8 mph 73% 0.00 in 172 W/m2
15:49 57.8 °F 49.2 °F 29.79 in ESE 6.9 mph 13.8 mph 73% 0.00 in 174 W/m2
15:54 57.7 °F 49.1 °F 29.78 in ESE 5 mph 12.6 mph 73% 0.00 in 169 W/m2
15:59 57.6 °F 49 °F 29.78 in ESE 7.3 mph 12.6 mph 73% 0.00 in 174 W/m2
16:04 57.6 °F 49 °F 29.78 in ESE 7.3 mph 13.8 mph 73.1% 0.00 in 163 W/m2
16:09 57.4 °F 49.1 °F 29.78 in SE 6.4 mph 13.8 mph 73.8% 0.00 in 121 W/m2
16:14 57.3 °F 48.7 °F 29.78 in ESE 7.6 mph 12.6 mph 72.9% 0.00 in 83 W/m2
16:19 57.2 °F 48.4 °F 29.77 in ESE 6.3 mph 12.6 mph 72.5% 0.00 in 76 W/m2
16:24 57 °F 48.3 °F 29.78 in SE 5.8 mph 11.5 mph 72.8% 0.00 in 54 W/m2
16:29 56.8 °F 48 °F 29.78 in ESE 6.7 mph 16.1 mph 72.2% 0.00 in 62 W/m2
16:34 56.7 °F 47.8 °F 29.78 in ESE 6.6 mph 16.1 mph 72% 0.00 in 63 W/m2
16:39 56.5 °F 47.8 °F 29.77 in SE 6.5 mph 11.5 mph 72.5% 0.00 in 63 W/m2
16:44 56.2 °F 47.5 °F 29.77 in SE 6.9 mph 14.9 mph 72.6% 0.00 in 47 W/m2
16:49 56.4 °F 47.3 °F 29.77 in SE 7.3 mph 14.9 mph 71.6% 0.00 in 63 W/m2
16:54 56.4 °F 47.3 °F 29.77 in SE 6.3 mph 12.6 mph 71.5% 0.00 in 102 W/m2
16:59 56.4 °F 47.5 °F 29.77 in SE 5.7 mph 13.8 mph 72% 0.00 in 142 W/m2
17:04 56.7 °F 47.7 °F 29.76 in SE 8.3 mph 13.8 mph 71.9% 0.00 in 146 W/m2
17:09 57.1 °F 47.7 °F 29.76 in SE 6.7 mph 13.8 mph 70.7% 0.00 in 134 W/m2
17:14 57.1 °F 47.8 °F 29.76 in ESE 5.6 mph 13.8 mph 70.8% 0.00 in 130 W/m2
17:19 56.8 °F 47.9 °F 29.76 in ESE 6.7 mph 11.5 mph 71.9% 0.01 in 137 W/m2
17:24 56.7 °F 47.8 °F 29.77 in SE 6 mph 12.6 mph 72% 0.01 in 139 W/m2
17:29 57 °F 48 °F 29.77 in SE 8 mph 13.8 mph 71.8% 0.01 in 149 W/m2
17:34 57.3 °F 48.1 °F 29.77 in SE 6.2 mph 13.8 mph 71.3% 0.01 in 144 W/m2
17:39 57.2 °F 48.3 °F 29.77 in SE 6.5 mph 12.6 mph 72% 0.01 in 158 W/m2
17:44 57.3 °F 48.3 °F 29.76 in SE 6.1 mph 12.6 mph 71.8% 0.01 in 158 W/m2
17:49 57.3 °F 48 °F 29.76 in ESE 7 mph 13.8 mph 71% 0.01 in 90 W/m2
17:54 57.2 °F 47.9 °F 29.76 in SE 5.4 mph 13.8 mph 71% 0.01 in 88 W/m2
17:59 57 °F 47.7 °F 29.76 in SE 6.2 mph 11.5 mph 71% 0.01 in 72 W/m2
18:04 56.7 °F 47.5 °F 29.77 in SE 7 mph 14.9 mph 71% 0.01 in 46 W/m2
18:09 56.5 °F 47.3 °F 29.77 in SE 8.1 mph 16.1 mph 71.2% 0.01 in 56 W/m2
18:14 56.6 °F 47.3 °F 29.76 in SE 8.6 mph 16.1 mph 71% 0.01 in 56 W/m2
18:19 56.5 °F 47.2 °F 29.76 in SE 8.2 mph 16.1 mph 71% 0.01 in 67 W/m2
18:24 56.5 °F 47 °F 29.76 in SE 7.7 mph 16.1 mph 70.4% 0.01 in 67 W/m2
18:29 56.7 °F 46.8 °F 29.76 in SE 9.4 mph 16.1 mph 69.4% 0.00 in 42 W/m2
18:34 56.5 °F 46.7 °F 29.76 in SE 7.2 mph 16.1 mph 69.6% 0.00 in 23 W/m2
18:39 56.5 °F 46.8 °F 29.75 in SE 8.2 mph 13.8 mph 69.8% 0.00 in 14 W/m2
18:44 56.4 °F 46.4 °F 29.75 in ESE 8.1 mph 13.8 mph 69.2% 0.00 in 9 W/m2
18:49 55.9 °F 46.3 °F 29.75 in SE 7.2 mph 13.8 mph 70.2% 0.00 in 5 W/m2
18:54 55 °F 46 °F 29.74 in ESE 8.1 mph 13.8 mph 71.5% 0.00 in 0 W/m2
18:59 54.2 °F 45.7 °F 29.74 in ESE 7.3 mph 13.8 mph 72.8% 0.00 in 0 W/m2
19:04 53.7 °F 45.4 °F 29.74 in ESE 7.3 mph 13.8 mph 73.4% 0.00 in 0 W/m2
19:09 53.5 °F 45.4 °F 29.74 in ESE 7.1 mph 13.8 mph 74% 0.00 in 0 W/m2
19:14 53.1 °F 45 °F 29.74 in ESE 6.6 mph 11.5 mph 74% 0.00 in 0 W/m2
19:19 52.7 °F 44.9 °F 29.74 in ESE 6.8 mph 10.3 mph 74.8% 0.00 in 0 W/m2
19:24 52.5 °F 44.8 °F 29.74 in ESE 7.4 mph 10.3 mph 75% 0.00 in 0 W/m2
19:29 53.2 °F 45.3 °F 29.73 in ESE 7.3 mph 11.5 mph 74.7% 0.00 in 0 W/m2
19:34 53.7 °F 45.6 °F 29.74 in ESE 6.7 mph 11.5 mph 74% 0.00 in 0 W/m2
19:39 53.8 °F 45.5 °F 29.74 in ESE 5.8 mph 10.3 mph 73.3% 0.00 in 0 W/m2
19:44 53.6 °F 45.4 °F 29.73 in ESE 6.8 mph 13.8 mph 73.5% 0.00 in 0 W/m2
19:49 53.2 °F 45.1 °F 29.73 in ESE 6.7 mph 13.8 mph 74% 0.00 in 0 W/m2
19:54 52.6 °F 44.9 °F 29.73 in ESE 7 mph 10.3 mph 75% 0.00 in 0 W/m2
19:59 52.2 °F 44.9 °F 29.73 in East 6.3 mph 10.3 mph 76% 0.00 in 0 W/m2
20:04 52.1 °F 44.8 °F 29.73 in East 6.1 mph 10.3 mph 76% 0.00 in 0 W/m2
20:09 52.1 °F 44.7 °F 29.72 in East 5.5 mph 9.2 mph 76% 0.00 in 0 W/m2
20:14 52 °F 44.7 °F 29.72 in East 5.3 mph 10.3 mph 76% 0.00 in 0 W/m2
20:19 52 °F 44.7 °F 29.71 in East 5.7 mph 10.3 mph 76% 0.00 in 0 W/m2
20:24 52.1 °F 44.8 °F 29.70 in East 5.1 mph 9.2 mph 76% 0.00 in 0 W/m2
20:29 52.3 °F 44.9 °F 29.69 in East 5.1 mph 9.2 mph 75.7% 0.00 in 0 W/m2
20:34 52.3 °F 44.8 °F 29.69 in East 5.8 mph 10.3 mph 75.3% 0.00 in 0 W/m2
20:39 52.3 °F 44.6 °F 29.69 in East 6 mph 11.5 mph 75% 0.00 in 0 W/m2
20:44 52.3 °F 44.7 °F 29.70 in East 4.6 mph 11.5 mph 75.3% 0.00 in 0 W/m2
20:49 52.2 °F 44.7 °F 29.71 in East 4.1 mph 9.2 mph 75.4% 0.00 in 0 W/m2
20:54 52.2 °F 44.7 °F 29.72 in East 2.7 mph 8.1 mph 75.5% 0.00 in 0 W/m2
20:59 52 °F 44.5 °F 29.72 in East 3.7 mph 8.1 mph 75.5% 0.00 in 0 W/m2
21:04 51.7 °F 44.4 °F 29.72 in East 2.2 mph 8.1 mph 76% 0.00 in 0 W/m2
21:09 51.6 °F 44.3 °F 29.71 in East 2.3 mph 8.1 mph 76% 0.00 in 0 W/m2
21:14 51.9 °F 44.6 °F 29.71 in East 3.8 mph 9.2 mph 75.9% 0.00 in 0 W/m2
21:19 52.4 °F 44.6 °F 29.71 in ESE 4.3 mph 10.3 mph 74.7% 0.00 in 0 W/m2
21:24 52.6 °F 44.4 °F 29.70 in East 5.7 mph 10.3 mph 73.8% 0.00 in 0 W/m2
21:29 52.3 °F 44.1 °F 29.70 in ESE 5.3 mph 10.3 mph 73.5% 0.00 in 0 W/m2
21:34 52.3 °F 44.1 °F 29.70 in ESE 6.8 mph 10.3 mph 73.4% 0.00 in 0 W/m2
21:39 52.5 °F 44.1 °F 29.70 in ESE 6.2 mph 10.3 mph 73% 0.00 in 0 W/m2
21:44 52.6 °F 43.9 °F 29.70 in ESE 6.5 mph 13.8 mph 72.4% 0.00 in 0 W/m2
21:49 52.6 °F 43.8 °F 29.70 in ESE 7.2 mph 13.8 mph 72% 0.00 in 0 W/m2
21:54 52.8 °F 44 °F 29.70 in ESE 8.3 mph 12.6 mph 71.8% 0.00 in 0 W/m2
21:59 53.1 °F 44.1 °F 29.70 in ESE 7.3 mph 12.6 mph 71.3% 0.00 in 0 W/m2
22:04 53.1 °F 44 °F 29.70 in ESE 7.1 mph 12.6 mph 71% 0.00 in 0 W/m2
22:09 52.9 °F 44.2 °F 29.70 in ESE 5.1 mph 12.6 mph 72.3% 0.00 in 0 W/m2
22:14 52.2 °F 44 °F 29.70 in ESE 6.2 mph 10.3 mph 73.5% 0.00 in 0 W/m2
22:19 52 °F 43.7 °F 29.70 in SE 5.8 mph 10.3 mph 73.2% 0.00 in 0 W/m2
22:24 52 °F 43.7 °F 29.71 in ESE 6.4 mph 10.3 mph 73% 0.00 in 0 W/m2
22:29 52 °F 43.6 °F 29.71 in ESE 6.4 mph 10.3 mph 73.1% 0.01 in 0 W/m2
22:34 51.6 °F 43.7 °F 29.71 in ESE 6.6 mph 11.5 mph 74.2% 0.01 in 0 W/m2
22:39 51.4 °F 43.8 °F 29.71 in ESE 6.3 mph 11.5 mph 75.2% 0.01 in 0 W/m2
22:44 51 °F 43.9 °F 29.71 in ESE 5.2 mph 10.3 mph 76.5% 0.02 in 0 W/m2
22:49 50.7 °F 44.1 °F 29.71 in ESE 5.5 mph 9.2 mph 77.8% 0.03 in 0 W/m2
22:54 50.5 °F 44.1 °F 29.71 in ESE 7 mph 10.3 mph 78.6% 0.03 in 0 W/m2
22:59 50.4 °F 44.3 °F 29.72 in ESE 6.2 mph 12.6 mph 79.4% 0.05 in 0 W/m2
23:04 50.3 °F 44.4 °F 29.72 in SE 7.5 mph 12.6 mph 80.1% 0.06 in 0 W/m2
23:09 50.4 °F 44.6 °F 29.71 in ESE 8 mph 14.9 mph 80.4% 0.07 in 0 W/m2
23:14 50.5 °F 44.6 °F 29.70 in ESE 7.7 mph 14.9 mph 80% 0.08 in 0 W/m2
23:19 50.4 °F 44.5 °F 29.71 in SE 6.5 mph 14.9 mph 80% 0.09 in 0 W/m2
23:24 50.2 °F 44.5 °F 29.72 in SE 7.4 mph 14.9 mph 80.8% 0.11 in 0 W/m2
23:29 50.3 °F 44.9 °F 29.72 in SE 7.1 mph 12.6 mph 81.6% 0.12 in 0 W/m2
23:34 50.2 °F 44.9 °F 29.72 in SE 6.4 mph 12.6 mph 82% 0.12 in 0 W/m2
23:39 50.1 °F 44.8 °F 29.71 in ESE 6 mph 11.5 mph 82% 0.13 in 0 W/m2
23:44 50 °F 44.7 °F 29.70 in ESE 5.4 mph 10.3 mph 82% 0.13 in 0 W/m2
23:49 49.7 °F 44.5 °F 29.70 in SE 5.1 mph 10.3 mph 82.4% 0.14 in 0 W/m2
23:54 49.4 °F 44.5 °F 29.70 in SE 5 mph 10.3 mph 83% 0.14 in 0 W/m2
23:59 49.4 °F 44.5 °F 29.70 in ESE 5.6 mph 10.3 mph 83% 0.16 in 0 W/m2
Peotne Weather
Compliments of Weather Underground - 4 mb